Time;durP1;ratioP1;P1;durP2;ratioP2;P2;SDS_P1;SDS_P2;PMS_P1;PMS_P2;Temp;Humidity;BMP_temperature;BMP_pressure;BME280_temperature;BME280_humidity;BME280_pressure;Samples;Min_cycle;Max_cycle;Signal;HPM_P1;HPM_P2
2022/03/23 00:01:40;;;;;;;42.63;24.70;;;24.00;32.30;;;;;;6141479;28;83139;-70
2022/03/23 00:04:41;;;;;;;42.80;24.48;;;23.90;32.20;;;;;;6158390;28;83333;-71
2022/03/23 00:07:41;;;;;;;47.33;26.42;;;23.90;32.20;;;;;;6152917;28;83409;-71
2022/03/23 00:10:42;;;;;;;42.90;25.27;;;23.90;32.20;;;;;;6160473;28;82962;-70
2022/03/23 00:13:42;;;;;;;47.53;26.75;;;23.90;32.20;;;;;;6160142;28;83203;-70
2022/03/23 00:16:43;;;;;;;45.05;25.73;;;23.90;32.20;;;;;;6160134;28;82877;-71
2022/03/23 00:19:44;;;;;;;44.80;27.33;;;23.90;32.40;;;;;;6151607;28;83871;-72
2022/03/23 00:22:44;;;;;;;47.88;27.08;;;23.90;32.30;;;;;;6136208;28;83912;-73
2022/03/23 00:25:45;;;;;;;48.45;28.17;;;23.90;32.20;;;;;;6135412;28;83189;-73
2022/03/23 00:28:45;;;;;;;48.97;27.67;;;23.90;32.20;;;;;;6144595;28;83550;-73
2022/03/23 00:31:46;;;;;;;51.22;25.83;;;23.90;32.30;;;;;;6159629;28;83064;-73
2022/03/23 00:34:46;;;;;;;46.75;26.30;;;23.90;32.30;;;;;;6145294;28;83287;-73
2022/03/23 00:37:47;;;;;;;48.70;27.15;;;23.90;32.20;;;;;;6151876;28;82958;-72
2022/03/23 00:40:47;;;;;;;50.20;28.27;;;23.90;32.60;;;;;;6133826;28;84692;-73
2022/03/23 00:43:49;;;;;;;46.67;26.50;;;23.80;32.40;;;;;;6142149;28;83148;-73
2022/03/23 00:46:49;;;;;;;51.50;27.55;;;23.90;32.30;;;;;;6157654;28;84077;-73
2022/03/23 00:49:50;;;;;;;43.13;25.80;;;23.80;32.30;;;;;;6133626;28;84371;-74
2022/03/23 00:52:50;;;;;;;51.15;27.65;;;23.80;32.40;;;;;;6139976;28;83194;-73
2022/03/23 00:55:51;;;;;;;44.85;26.60;;;23.80;32.40;;;;;;6159176;28;83149;-73
2022/03/23 00:58:51;;;;;;;47.92;26.75;;;23.80;32.60;;;;;;6158581;28;82783;-71
2022/03/23 01:01:52;;;;;;;49.92;27.08;;;23.80;32.50;;;;;;6148722;28;83619;-73
2022/03/23 01:04:52;;;;;;;44.03;26.05;;;23.80;32.60;;;;;;6146980;28;82885;-72
2022/03/23 01:07:53;;;;;;;46.85;26.23;;;23.80;32.40;;;;;;6144885;28;83095;-72
2022/03/23 01:10:53;;;;;;;44.92;27.30;;;23.80;32.60;;;;;;6152463;28;83135;-70
2022/03/23 01:13:54;;;;;;;46.80;26.80;;;23.80;32.60;;;;;;6154441;28;85905;-71
2022/03/23 01:16:55;;;;;;;51.50;26.85;;;23.80;32.50;;;;;;6133305;28;82844;-70
2022/03/23 01:19:57;;;;;;;44.40;24.80;;;23.80;32.50;;;;;;6148020;28;86235;-71
2022/03/23 01:22:59;;;;;;;45.08;26.13;;;23.80;32.50;;;;;;6131431;28;84119;-71
2022/03/23 01:26:00;;;;;;;42.15;24.02;;;23.70;32.20;;;;;;6132092;28;83869;-70
2022/03/23 01:29:02;;;;;;;42.22;24.13;;;23.70;32.40;;;;;;6148956;28;84327;-71
2022/03/23 01:32:02;;;;;;;44.72;23.40;;;23.70;32.20;;;;;;6133661;28;83124;-72
2022/03/23 01:35:03;;;;;;;44.88;25.17;;;23.70;32.40;;;;;;6137826;28;85646;-68
2022/03/23 01:38:04;;;;;;;42.20;22.67;;;23.70;32.10;;;;;;6156576;28;83130;-68
2022/03/23 01:41:04;;;;;;;41.60;23.40;;;23.70;32.50;;;;;;6157103;28;83099;-68
2022/03/23 01:44:06;;;;;;;40.65;22.30;;;23.70;32.60;;;;;;6154538;28;85232;-69
2022/03/23 01:47:07;;;;;;;39.10;22.52;;;23.70;32.80;;;;;;6155510;28;83378;-68
2022/03/23 01:50:07;;;;;;;38.58;22.90;;;23.70;32.90;;;;;;6139596;28;83327;-68
2022/03/23 01:53:08;;;;;;;40.60;22.48;;;23.70;32.80;;;;;;6136387;28;83022;-68
2022/03/23 01:56:08;;;;;;;43.40;23.02;;;23.70;32.90;;;;;;6138834;28;83979;-70
2022/03/23 01:59:09;;;;;;;39.80;21.95;;;23.70;33.00;;;;;;6097198;28;1201826;-69
2022/03/23 02:02:09;;;;;;;38.20;21.30;;;23.70;33.30;;;;;;6132157;28;86205;-70
2022/03/23 02:05:18;;;;;;;41.70;21.60;;;23.70;33.00;;;;;;6148441;28;85952;-70
2022/03/23 02:08:26;;;;;;;39.47;20.83;;;23.60;33.30;;;;;;6157548;28;83336;-70
2022/03/23 02:11:27;;;;;;;40.03;22.42;;;23.60;33.10;;;;;;6156073;28;86094;-70
2022/03/23 02:14:28;;;;;;;38.67;21.98;;;23.60;32.90;;;;;;6150894;28;86513;-70
2022/03/23 02:17:30;;;;;;;42.13;22.67;;;23.60;33.30;;;;;;6153832;28;86234;-69
2022/03/23 02:20:30;;;;;;;38.92;21.95;;;23.60;33.60;;;;;;6156064;28;86000;-72
2022/03/23 02:23:31;;;;;;;37.22;21.45;;;23.60;33.60;;;;;;6156401;28;84799;-70
2022/03/23 02:26:31;;;;;;;38.97;20.40;;;23.60;33.30;;;;;;6145886;28;84029;-70
2022/03/23 02:29:32;;;;;;;38.88;22.13;;;23.60;33.50;;;;;;6157688;28;83636;-70
2022/03/23 02:32:32;;;;;;;37.15;22.08;;;23.60;33.40;;;;;;6158230;28;83186;-70
2022/03/23 02:35:33;;;;;;;39.92;21.20;;;23.60;33.00;;;;;;6146787;28;83588;-70
2022/03/23 02:38:34;;;;;;;34.85;20.35;;;23.60;33.10;;;;;;6146142;28;83142;-71
2022/03/23 02:41:34;;;;;;;38.15;20.88;;;23.60;33.90;;;;;;6154789;28;83578;-71
2022/03/23 02:44:35;;;;;;;36.55;21.45;;;23.60;33.80;;;;;;6149631;28;83255;-74
2022/03/23 02:47:35;;;;;;;39.88;22.05;;;23.60;33.60;;;;;;6150000;28;83649;-71
2022/03/23 02:50:36;;;;;;;41.28;21.17;;;23.60;33.80;;;;;;6155264;28;83074;-69
2022/03/23 03:03:35;;;;;;;37.55;21.17;;;23.60;33.40;;;;;;6132257;28;88119;-68
2022/03/23 03:06:35;;;;;;;36.50;19.52;;;23.60;33.70;;;;;;6146222;28;84002;-68
2022/03/23 03:09:36;;;;;;;37.45;20.75;;;23.60;33.40;;;;;;6156480;28;83424;-69
2022/03/23 03:12:36;;;;;;;35.95;19.90;;;23.60;33.50;;;;;;6142680;28;82809;-68
2022/03/23 03:15:37;;;;;;;38.30;21.98;;;23.60;33.60;;;;;;6156500;28;83493;-68
2022/03/23 03:18:38;;;;;;;39.83;21.95;;;23.60;33.70;;;;;;6152865;28;83177;-68
2022/03/23 03:21:38;;;;;;;36.30;21.27;;;23.60;33.00;;;;;;6140125;28;83174;-70
2022/03/23 03:24:39;;;;;;;43.58;22.38;;;23.60;33.40;;;;;;6155040;28;83422;-70
2022/03/23 03:27:40;;;;;;;38.60;21.23;;;23.60;33.40;;;;;;6140010;28;84697;-68
2022/03/23 03:30:41;;;;;;;38.67;22.55;;;23.60;33.40;;;;;;6144158;28;83367;-68
2022/03/23 03:33:41;;;;;;;43.65;22.50;;;23.50;33.60;;;;;;6144734;28;83503;-69
2022/03/23 03:36:42;;;;;;;41.65;22.33;;;23.60;33.70;;;;;;6136449;28;85005;-70
2022/03/23 03:39:42;;;;;;;38.35;22.48;;;23.60;33.00;;;;;;6137349;28;83210;-69
2022/03/23 03:42:43;;;;;;;45.15;23.15;;;23.60;33.20;;;;;;6141612;28;83025;-69
2022/03/23 03:45:43;;;;;;;38.03;21.38;;;23.60;33.20;;;;;;6148163;28;83295;-70
2022/03/23 03:48:44;;;;;;;45.35;22.42;;;23.50;33.60;;;;;;6139364;28;83108;-71
2022/03/23 03:51:44;;;;;;;41.80;23.05;;;23.60;33.90;;;;;;6146195;28;83143;-70
2022/03/23 03:54:45;;;;;;;40.15;21.60;;;23.60;32.80;;;;;;6141354;28;83498;-69
2022/03/23 03:57:45;;;;;;;38.60;21.55;;;23.60;32.80;;;;;;6136975;28;83112;-68
2022/03/23 04:00:46;;;;;;;40.28;21.42;;;23.50;32.50;;;;;;6133491;28;83456;-70
2022/03/23 04:03:46;;;;;;;39.22;21.75;;;23.60;32.70;;;;;;6144574;28;83372;-70
2022/03/23 04:06:47;;;;;;;42.53;23.15;;;23.50;32.60;;;;;;6143596;28;83347;-70
2022/03/23 04:09:47;;;;;;;39.20;22.25;;;23.50;32.20;;;;;;6152808;28;82919;-69
2022/03/23 04:12:48;;;;;;;38.80;21.00;;;23.50;32.40;;;;;;6144341;28;82875;-67
2022/03/23 04:15:50;;;;;;;38.70;21.45;;;23.50;32.60;;;;;;6149309;28;83130;-67
2022/03/23 04:18:50;;;;;;;41.00;21.88;;;23.50;32.90;;;;;;6148781;28;83758;-68
2022/03/23 04:21:51;;;;;;;37.47;21.92;;;23.60;33.60;;;;;;6137523;28;83792;-68
2022/03/23 04:24:51;;;;;;;39.78;22.08;;;23.60;33.60;;;;;;6144293;28;84329;-68
2022/03/23 04:27:52;;;;;;;35.33;18.63;;;23.70;33.60;;;;;;6148672;28;82935;-69
2022/03/23 04:30:53;;;;;;;38.33;20.63;;;23.70;33.50;;;;;;6142745;28;83657;-68
2022/03/23 04:33:54;;;;;;;36.50;19.60;;;23.80;33.50;;;;;;6132773;28;84016;-68
2022/03/23 04:36:55;;;;;;;39.75;20.05;;;23.80;33.40;;;;;;6149542;28;83103;-69
2022/03/23 04:39:55;;;;;;;41.38;21.45;;;23.90;33.40;;;;;;6131163;28;83082;-69
2022/03/23 04:42:56;;;;;;;33.47;19.38;;;23.90;33.30;;;;;;6135846;28;83117;-70
2022/03/23 04:45:56;;;;;;;35.35;19.23;;;23.90;33.40;;;;;;6137715;28;83059;-70
2022/03/23 04:48:57;;;;;;;39.30;19.35;;;24.00;33.50;;;;;;6136700;28;90438;-70
2022/03/23 04:51:58;;;;;;;36.95;20.63;;;23.90;33.40;;;;;;6135256;28;83796;-70
2022/03/23 04:54:59;;;;;;;32.08;18.17;;;24.00;33.30;;;;;;6147098;28;84151;-69
2022/03/23 04:58:02;;;;;;;39.80;19.85;;;24.00;33.40;;;;;;6151824;28;84341;-69
2022/03/23 05:01:02;;;;;;;35.28;18.30;;;24.00;33.40;;;;;;6147000;28;84587;-69
2022/03/23 05:04:03;;;;;;;31.15;17.75;;;24.00;33.20;;;;;;6149188;28;82998;-68
2022/03/23 05:07:04;;;;;;;33.55;18.75;;;24.00;33.10;;;;;;6144921;28;83048;-69
2022/03/23 05:10:04;;;;;;;32.97;18.15;;;24.00;33.10;;;;;;6140185;28;83770;-69
2022/03/23 05:13:05;;;;;;;33.75;18.98;;;24.00;33.10;;;;;;6151080;28;83310;-66
2022/03/23 05:16:07;;;;;;;35.33;18.95;;;24.00;33.60;;;;;;6140492;28;84473;-71
2022/03/23 05:19:08;;;;;;;42.47;20.50;;;24.10;33.70;;;;;;6158293;28;84059;-69
2022/03/23 05:22:09;;;;;;;36.00;20.15;;;24.10;33.80;;;;;;6149870;28;83363;-69
2022/03/23 05:25:09;;;;;;;38.78;20.73;;;24.10;33.60;;;;;;6153986;28;83204;-73
2022/03/23 05:28:10;;;;;;;43.28;20.33;;;24.10;33.60;;;;;;6148933;28;83501;-75
2022/03/23 05:31:10;;;;;;;36.10;20.17;;;24.10;33.10;;;;;;6149339;28;83020;-69
2022/03/23 05:34:11;;;;;;;37.53;19.75;;;24.10;33.10;;;;;;6157765;28;83440;-70
2022/03/23 05:37:11;;;;;;;38.70;20.83;;;24.10;32.70;;;;;;6143421;28;83282;-72
2022/03/23 05:40:13;;;;;;;33.55;19.90;;;24.10;32.90;;;;;;6144802;28;83754;-71
2022/03/23 05:43:13;;;;;;;33.05;18.52;;;24.10;32.50;;;;;;6152435;28;83173;-71
2022/03/23 05:46:14;;;;;;;36.40;19.75;;;24.10;33.60;;;;;;6133129;28;83154;-72
2022/03/23 05:49:14;;;;;;;38.60;18.25;;;24.10;32.60;;;;;;6133897;28;84096;-72
2022/03/23 05:52:15;;;;;;;40.33;20.77;;;24.10;32.80;;;;;;6134436;28;83238;-71
2022/03/23 05:55:15;;;;;;;38.97;20.38;;;24.10;32.80;;;;;;6134184;28;83154;-70
2022/03/23 05:58:17;;;;;;;40.97;20.77;;;24.10;33.00;;;;;;6133186;28;84228;-71
2022/03/23 06:01:17;;;;;;;39.15;20.63;;;24.10;33.30;;;;;;6137441;28;84607;-73
2022/03/23 06:04:18;;;;;;;38.72;21.35;;;24.10;33.40;;;;;;6142158;28;83960;-71
2022/03/23 06:07:18;;;;;;;38.03;21.13;;;24.10;33.30;;;;;;6144395;28;82943;-78
2022/03/23 06:10:19;;;;;;;42.15;21.35;;;24.10;33.60;;;;;;6157822;28;83019;-72
2022/03/23 06:13:20;;;;;;;42.15;22.13;;;24.20;34.00;;;;;;6158020;28;82958;-69
2022/03/23 06:16:20;;;;;;;37.05;20.60;;;24.10;34.00;;;;;;6151674;28;83007;-71
2022/03/23 06:19:21;;;;;;;44.00;22.50;;;24.10;34.10;;;;;;6133758;28;83138;-72
2022/03/23 06:22:21;;;;;;;39.88;22.02;;;24.20;34.30;;;;;;6145335;28;83623;-68
2022/03/23 06:25:24;;;;;;;39.13;21.73;;;24.20;34.20;;;;;;6136020;28;83388;-75
2022/03/23 06:28:25;;;;;;;42.80;21.80;;;24.20;34.30;;;;;;6133976;28;83189;-75
2022/03/23 06:31:25;;;;;;;40.47;22.52;;;24.20;34.40;;;;;;6137925;28;83242;-73
2022/03/23 06:34:26;;;;;;;41.17;21.00;;;24.30;34.00;;;;;;6152799;28;83065;-78
2022/03/23 06:37:26;;;;;;;37.92;21.83;;;24.20;34.20;;;;;;6144600;28;83376;-75
2022/03/23 06:40:27;;;;;;;40.63;22.17;;;24.30;34.80;;;;;;6138443;28;84667;-67
2022/03/23 06:43:27;;;;;;;37.50;21.13;;;24.30;34.60;;;;;;6157580;28;83317;-77
2022/03/23 06:46:28;;;;;;;35.70;20.30;;;24.30;34.50;;;;;;6157175;28;83047;-65
2022/03/23 06:49:28;;;;;;;40.72;20.38;;;24.30;34.10;;;;;;6135200;28;82856;-71
2022/03/23 06:52:29;;;;;;;45.53;21.38;;;24.30;34.70;;;;;;6132416;28;82870;-71
2022/03/23 06:55:29;;;;;;;43.15;20.65;;;24.30;34.60;;;;;;6139874;28;84471;-70
2022/03/23 06:58:30;;;;;;;36.35;20.35;;;24.30;34.40;;;;;;6139518;28;83734;-69
2022/03/23 07:01:30;;;;;;;40.33;22.05;;;24.30;34.10;;;;;;6140401;28;83416;-77
2022/03/23 07:04:31;;;;;;;42.63;22.02;;;24.30;34.00;;;;;;6132551;28;83129;-75
2022/03/23 07:07:31;;;;;;;39.97;22.95;;;24.30;33.70;;;;;;6148317;28;83226;-70
2022/03/23 07:10:33;;;;;;;38.42;21.75;;;24.20;33.40;;;;;;6143539;28;83007;-71
2022/03/23 07:13:33;;;;;;;41.35;22.23;;;24.30;33.30;;;;;;6137690;28;84615;-72
2022/03/23 07:16:34;;;;;;;43.25;23.80;;;24.20;33.00;;;;;;6137995;28;84512;-72
2022/03/23 07:19:34;;;;;;;39.33;23.10;;;24.20;32.70;;;;;;6151867;28;83071;-73
2022/03/23 07:22:35;;;;;;;47.05;24.60;;;24.30;32.60;;;;;;6150426;28;83391;-72
2022/03/23 07:25:35;;;;;;;42.20;23.30;;;24.20;32.30;;;;;;6131881;28;83002;-73
2022/03/23 07:28:36;;;;;;;46.03;25.13;;;24.30;32.40;;;;;;6146532;28;83053;-71
2022/03/23 07:31:36;;;;;;;45.92;25.50;;;24.30;32.20;;;;;;6144275;28;83139;-71
2022/03/23 07:34:37;;;;;;;43.88;23.95;;;24.30;32.10;;;;;;6146707;28;83694;-80
2022/03/23 07:37:38;;;;;;;45.17;25.30;;;24.30;31.90;;;;;;6150317;28;83217;-70
2022/03/23 07:40:38;;;;;;;57.33;25.98;;;24.30;31.90;;;;;;6153356;28;85139;-67
2022/03/23 07:43:39;;;;;;;46.78;25.85;;;24.20;32.20;;;;;;6155552;28;83399;-66
2022/03/23 07:46:39;;;;;;;43.40;24.40;;;24.20;31.90;;;;;;6156407;28;83194;-67
2022/03/23 07:49:40;;;;;;;43.08;23.85;;;24.20;31.90;;;;;;6149641;28;84069;-65
2022/03/23 07:52:41;;;;;;;39.85;23.30;;;24.30;31.90;;;;;;6153868;28;83309;-69
2022/03/23 07:55:41;;;;;;;43.17;22.42;;;24.20;31.90;;;;;;6131784;28;83013;-69
2022/03/23 07:58:42;;;;;;;38.10;21.35;;;24.20;32.60;;;;;;6131372;28;84558;-67
2022/03/23 08:01:42;;;;;;;47.47;22.27;;;24.30;32.40;;;;;;6131476;28;83493;-66
2022/03/23 08:04:43;;;;;;;40.97;21.20;;;24.30;32.40;;;;;;6131221;28;83100;-65
2022/03/23 08:07:45;;;;;;;36.30;20.33;;;24.30;32.40;;;;;;6147089;28;83664;-66
2022/03/23 08:10:45;;;;;;;40.78;20.92;;;24.30;32.70;;;;;;6154920;28;84752;-65
2022/03/23 08:13:46;;;;;;;38.75;20.35;;;24.30;32.50;;;;;;6147385;28;83124;-65
2022/03/23 08:16:47;;;;;;;38.53;20.42;;;24.40;32.60;;;;;;6131706;28;84569;-65
2022/03/23 08:20:32;;;;;;;41.05;18.52;;;24.40;32.60;;;;;;6151672;28;83452;-65
2022/03/23 08:23:11;;;;;;;39.50;18.02;;;24.40;32.60;;;;;;6133660;28;83225;-65
2022/03/23 08:26:13;;;;;;;30.92;17.52;;;24.40;32.70;;;;;;6157754;28;83200;-66
2022/03/23 08:29:14;;;;;;;29.48;17.65;;;24.50;32.80;;;;;;6135532;28;82862;-66
2022/03/23 08:32:14;;;;;;;30.50;17.35;;;24.50;32.70;;;;;;6157388;28;85970;-66
2022/03/23 08:35:15;;;;;;;33.97;16.88;;;24.50;32.70;;;;;;6154578;28;82776;-68
2022/03/23 08:38:16;;;;;;;32.83;16.60;;;24.40;32.80;;;;;;6147537;28;83238;-67
2022/03/23 08:41:18;;;;;;;34.90;17.17;;;24.50;32.80;;;;;;6155252;28;83399;-66
2022/03/23 08:44:18;;;;;;;28.92;15.57;;;24.40;33.00;;;;;;6138781;28;83837;-67
2022/03/23 08:47:19;;;;;;;25.70;14.95;;;24.50;33.10;;;;;;6143862;28;83226;-67
2022/03/23 08:50:19;;;;;;;27.38;14.40;;;24.50;33.00;;;;;;6152177;28;83958;-67
2022/03/23 08:53:20;;;;;;;29.25;14.60;;;24.60;33.30;;;;;;6151981;28;83426;-67
2022/03/23 08:56:21;;;;;;;22.63;12.98;;;24.60;33.20;;;;;;6156916;28;83217;-68
2022/03/23 08:59:21;;;;;;;22.85;13.25;;;24.60;33.10;;;;;;6148858;28;83039;-67
2022/03/23 09:02:22;;;;;;;26.55;12.68;;;24.60;33.20;;;;;;6143866;28;83379;-67
2022/03/23 09:05:23;;;;;;;20.90;12.18;;;24.70;33.30;;;;;;6134171;28;83190;-66
2022/03/23 09:08:23;;;;;;;17.77;10.63;;;24.70;33.50;;;;;;6143236;28;83478;-67
2022/03/23 09:11:24;;;;;;;17.70;10.68;;;24.70;33.60;;;;;;6134714;28;83056;-66
2022/03/23 09:14:25;;;;;;;19.60;11.38;;;24.80;33.70;;;;;;6142249;28;83200;-66
2022/03/23 09:17:25;;;;;;;22.33;12.50;;;24.80;33.90;;;;;;6138141;28;84149;-67
2022/03/23 09:20:28;;;;;;;20.00;11.82;;;24.80;33.90;;;;;;6145674;28;83014;-67
2022/03/23 09:23:28;;;;;;;16.60;9.95;;;24.80;34.00;;;;;;6151245;28;84413;-69
2022/03/23 09:26:29;;;;;;;16.17;9.43;;;24.80;34.10;;;;;;6158271;28;83427;-70
2022/03/23 09:29:29;;;;;;;16.27;9.73;;;24.90;34.30;;;;;;6158572;28;80593;-68
2022/03/23 09:32:30;;;;;;;14.45;9.38;;;24.90;34.30;;;;;;6159550;28;82465;-69
2022/03/23 09:35:31;;;;;;;17.05;9.38;;;24.90;34.30;;;;;;6153115;28;83377;-69
2022/03/23 09:38:31;;;;;;;14.02;8.52;;;24.90;34.30;;;;;;6152330;28;80962;-68
2022/03/23 09:41:32;;;;;;;12.32;8.07;;;25.00;34.30;;;;;;6156378;28;80613;-69
2022/03/23 09:44:35;;;;;;;13.52;8.23;;;25.00;34.30;;;;;;6137374;28;80239;-68
2022/03/23 09:47:35;;;;;;;14.80;8.32;;;25.00;34.30;;;;;;6143807;28;81015;-69
2022/03/23 09:50:36;;;;;;;11.93;7.97;;;25.00;34.30;;;;;;6156016;28;80473;-67
2022/03/23 09:53:36;;;;;;;12.27;7.30;;;25.10;34.30;;;;;;6144911;28;80487;-67
2022/03/23 09:56:37;;;;;;;11.90;7.38;;;25.10;34.50;;;;;;6147034;28;80457;-69
2022/03/23 09:59:37;;;;;;;13.93;8.57;;;25.10;34.30;;;;;;6151493;28;81885;-67
2022/03/23 10:02:38;;;;;;;13.30;7.50;;;25.10;34.30;;;;;;6154862;28;80389;-68
2022/03/23 10:05:38;;;;;;;10.77;6.68;;;25.20;34.30;;;;;;6137473;28;80288;-68
2022/03/23 10:08:39;;;;;;;10.63;5.80;;;25.20;34.30;;;;;;6139081;28;80250;-68
2022/03/23 10:11:39;;;;;;;9.40;6.35;;;25.20;34.30;;;;;;6155310;28;80295;-67
2022/03/23 10:14:40;;;;;;;11.02;6.65;;;25.30;34.40;;;;;;6143897;28;81188;-67
2022/03/23 10:17:41;;;;;;;8.45;6.10;;;25.30;34.40;;;;;;6150111;28;81403;-67
2022/03/23 10:20:42;;;;;;;9.75;5.32;;;25.30;34.30;;;;;;6158117;28;81643;-79
2022/03/23 10:23:42;;;;;;;9.57;5.43;;;25.30;34.20;;;;;;6160083;28;80196;-77
2022/03/23 10:26:43;;;;;;;9.50;6.20;;;25.30;34.20;;;;;;6153753;28;80946;-71
2022/03/23 10:29:44;;;;;;;13.68;6.50;;;25.40;34.20;;;;;;6146818;28;80423;-72
2022/03/23 10:32:44;;;;;;;13.68;8.05;;;25.30;32.10;;;;;;6155143;28;80509;-71
2022/03/23 10:35:45;;;;;;;14.02;7.45;;;25.00;27.30;;;;;;6150994;28;82047;-71
2022/03/23 10:38:45;;;;;;;15.93;7.70;;;24.90;28.40;;;;;;6157156;28;80638;-71
2022/03/23 10:41:46;;;;;;;13.52;7.82;;;25.00;28.80;;;;;;6147797;28;81584;-72
2022/03/23 10:44:46;;;;;;;11.65;7.07;;;25.10;28.80;;;;;;6154371;28;81373;-73
2022/03/23 10:47:47;;;;;;;14.30;8.60;;;25.10;26.10;;;;;;6150777;28;82150;-66
2022/03/23 10:50:47;;;;;;;14.75;7.32;;;25.10;27.30;;;;;;6150033;28;80469;-70
2022/03/23 10:53:48;;;;;;;14.05;7.35;;;25.20;26.80;;;;;;6155103;28;81860;-68
2022/03/23 10:56:49;;;;;;;13.10;7.72;;;25.20;26.30;;;;;;6148838;28;80831;-68
2022/03/23 10:59:49;;;;;;;12.15;7.60;;;25.30;27.10;;;;;;6150222;28;82439;-68
2022/03/23 11:02:50;;;;;;;11.50;7.10;;;25.30;26.30;;;;;;6155321;28;81967;-70
2022/03/23 11:05:50;;;;;;;9.35;6.03;;;25.30;26.50;;;;;;6156601;28;80301;-66
2022/03/23 11:08:51;;;;;;;11.43;7.15;;;25.30;27.70;;;;;;6146752;28;80191;-73
2022/03/23 11:18:31;;;;;;;15.02;6.60;;;25.10;27.30;;;;;;6138120;28;80755;-69
2022/03/23 11:21:32;;;;;;;10.40;6.15;;;25.10;28.50;;;;;;6159576;28;87167;-67
2022/03/23 11:24:33;;;;;;;14.55;5.57;;;25.00;27.90;;;;;;6149439;28;80873;-68
2022/03/23 11:27:35;;;;;;;17.00;5.57;;;24.90;28.30;;;;;;6142720;28;81828;-69
2022/03/23 11:30:37;;;;;;;9.95;5.63;;;24.80;27.80;;;;;;6157645;28;82279;-69
2022/03/23 11:33:38;;;;;;;7.93;5.10;;;24.70;28.10;;;;;;6136409;28;80486;-69
2022/03/23 11:36:39;;;;;;;7.30;4.78;;;24.60;28.30;;;;;;6158013;28;80554;-69
2022/03/23 11:39:41;;;;;;;9.65;5.03;;;24.70;27.90;;;;;;6149683;28;81605;-69
2022/03/23 11:42:41;;;;;;;9.02;5.00;;;24.80;28.90;;;;;;6143141;28;80580;-72
2022/03/23 11:45:42;;;;;;;8.75;4.63;;;24.90;28.70;;;;;;6147690;28;81620;-67
2022/03/23 11:48:42;;;;;;;10.50;4.88;;;24.90;27.60;;;;;;6155222;28;80371;-69
2022/03/23 11:51:43;;;;;;;7.40;4.22;;;25.00;31.70;;;;;;6143023;28;81432;-69
2022/03/23 11:58:03;;;;;;;6.82;4.95;;;24.90;24.50;;;;;;6146483;28;80258;-70
2022/03/23 12:01:03;;;;;;;6.68;4.38;;;25.00;25.60;;;;;;6162658;28;80776;-70
2022/03/23 12:04:04;;;;;;;9.15;4.80;;;25.10;29.10;;;;;;6164086;28;80395;-70
2022/03/23 12:07:04;;;;;;;9.15;4.60;;;25.10;28.80;;;;;;6158087;28;80632;-71
2022/03/23 12:10:05;;;;;;;8.70;5.07;;;25.10;27.60;;;;;;6140117;28;80764;-71
2022/03/23 12:13:05;;;;;;;9.23;4.68;;;25.10;27.70;;;;;;6138912;28;80385;-68
2022/03/23 12:16:06;;;;;;;13.13;4.95;;;25.20;29.60;;;;;;6141859;28;80669;-69
2022/03/23 12:19:07;;;;;;;11.25;4.95;;;25.10;28.30;;;;;;6153588;28;80381;-68
2022/03/23 12:22:07;;;;;;;8.82;4.72;;;25.00;25.80;;;;;;6161124;28;81328;-69
2022/03/23 12:25:08;;;;;;;9.68;5.55;;;24.90;26.00;;;;;;6163254;28;80871;-70
2022/03/23 12:28:08;;;;;;;8.73;5.35;;;24.80;23.60;;;;;;6161403;28;81852;-72
2022/03/23 12:31:10;;;;;;;11.55;5.60;;;24.70;24.20;;;;;;6158254;28;80707;-70
2022/03/23 12:34:11;;;;;;;10.20;5.53;;;24.70;26.40;;;;;;6138586;28;80290;-72
2022/03/23 12:37:11;;;;;;;9.32;5.28;;;24.70;25.60;;;;;;6158117;28;80482;-71
2022/03/23 12:40:12;;;;;;;18.10;5.68;;;24.60;25.10;;;;;;6162990;28;80446;-69
2022/03/23 12:43:12;;;;;;;11.88;6.10;;;24.60;24.90;;;;;;6155800;28;80328;-70
2022/03/23 12:46:13;;;;;;;8.55;5.07;;;24.60;24.60;;;;;;6160729;28;80833;-70
2022/03/23 12:59:11;;;;;;;10.40;5.20;;;24.70;24.00;;;;;;6158891;28;80703;-67
2022/03/23 13:02:12;;;;;;;11.38;5.65;;;24.70;24.90;;;;;;6160662;28;80282;-67
2022/03/23 13:05:12;;;;;;;9.30;5.35;;;24.80;24.50;;;;;;6162202;28;80433;-69
2022/03/23 13:08:13;;;;;;;6.72;4.50;;;24.90;25.10;;;;;;6163121;28;81143;-67
2022/03/23 13:11:14;;;;;;;11.48;5.70;;;25.00;25.00;;;;;;6145701;28;80600;-66
2022/03/23 13:14:14;;;;;;;10.48;5.63;;;25.00;25.10;;;;;;6138763;28;80395;-67
2022/03/23 13:17:17;;;;;;;10.77;4.75;;;25.00;24.60;;;;;;6147352;28;81356;-67
2022/03/23 13:20:17;;;;;;;15.63;6.28;;;24.90;22.70;;;;;;6139469;28;86168;-68
2022/03/23 13:23:19;;;;;;;10.27;5.65;;;24.80;23.10;;;;;;6157986;28;83781;-68
2022/03/23 13:26:19;;;;;;;8.80;5.43;;;24.90;23.30;;;;;;6162168;28;83788;-68
2022/03/23 13:29:20;;;;;;;9.48;5.43;;;25.00;24.90;;;;;;6161945;28;80287;-68
2022/03/23 13:32:20;;;;;;;15.55;6.07;;;25.00;23.80;;;;;;6157024;28;80892;-68
2022/03/23 13:35:21;;;;;;;7.57;5.50;;;25.10;24.50;;;;;;6157026;28;80112;-67
2022/03/23 13:38:22;;;;;;;11.40;5.60;;;25.10;24.00;;;;;;6161450;28;81948;-69
2022/03/23 13:44:59;;;;;;;8.05;5.20;;;25.20;24.50;;;;;;6162469;28;80034;-68
2022/03/23 13:48:00;;;;;;;9.65;5.78;;;25.20;24.10;;;;;;6153391;28;80422;-68
2022/03/23 13:51:01;;;;;;;10.77;6.13;;;25.20;23.40;;;;;;6153067;28;82175;-67
2022/03/23 13:54:01;;;;;;;8.88;5.43;;;25.30;24.00;;;;;;6150223;28;81868;-69
2022/03/23 13:57:02;;;;;;;12.65;6.32;;;25.30;24.40;;;;;;6153049;28;80372;-68
2022/03/23 14:00:03;;;;;;;11.27;4.90;;;25.30;23.90;;;;;;6152121;28;80637;-67
2022/03/23 14:03:05;;;;;;;7.75;5.03;;;25.40;23.10;;;;;;6155330;28;80777;-66
2022/03/23 14:06:06;;;;;;;7.45;5.20;;;25.40;23.20;;;;;;6152886;28;81583;-66
2022/03/23 14:09:07;;;;;;;8.25;5.07;;;25.40;22.70;;;;;;6155381;28;80478;-67
2022/03/23 14:12:07;;;;;;;11.18;5.70;;;25.30;23.10;;;;;;6159065;28;80609;-67
2022/03/23 14:15:08;;;;;;;12.05;4.95;;;25.40;22.50;;;;;;6161310;28;80252;-68
2022/03/23 14:18:08;;;;;;;15.90;5.10;;;25.30;21.30;;;;;;6161487;28;80711;-69
2022/03/23 14:21:09;;;;;;;7.53;4.88;;;25.30;21.60;;;;;;6154934;28;81655;-68
2022/03/23 14:24:09;;;;;;;9.13;5.22;;;25.30;21.60;;;;;;6156443;28;80410;-67
2022/03/23 14:27:10;;;;;;;8.48;5.40;;;25.30;21.40;;;;;;6142576;28;82790;-67
2022/03/23 14:30:11;;;;;;;12.00;5.57;;;25.30;21.10;;;;;;6152680;28;81390;-68
2022/03/23 14:33:11;;;;;;;8.35;4.93;;;25.30;21.00;;;;;;6160101;28;80419;-68
2022/03/23 14:36:12;;;;;;;10.27;5.50;;;25.40;21.00;;;;;;6142314;28;80369;-68
2022/03/23 14:39:12;;;;;;;11.20;5.68;;;25.30;20.60;;;;;;6155880;28;81352;-67
2022/03/23 14:42:13;;;;;;;9.38;5.18;;;25.40;21.10;;;;;;6153539;28;80351;-68
2022/03/23 14:45:13;;;;;;;7.40;4.45;;;25.40;22.60;;;;;;6137615;28;80645;-67
2022/03/23 14:48:15;;;;;;;7.57;4.43;;;25.40;21.20;;;;;;6153944;28;81167;-68
2022/03/23 14:51:16;;;;;;;11.07;4.85;;;25.40;21.60;;;;;;6137498;28;80489;-68
2022/03/23 14:54:17;;;;;;;14.60;5.32;;;25.40;21.60;;;;;;6153174;28;80124;-68
2022/03/23 14:57:17;;;;;;;9.20;4.72;;;25.40;22.80;;;;;;6147607;28;80507;-68
2022/03/23 15:00:18;;;;;;;9.02;5.13;;;25.40;23.20;;;;;;6151383;28;81417;-67
2022/03/23 15:03:18;;;;;;;9.52;4.05;;;25.40;23.00;;;;;;6143033;28;81303;-71
2022/03/23 15:13:16;;;;;;;8.85;4.35;;;25.40;22.20;;;;;;6136600;28;80337;-66
2022/03/23 15:16:18;;;;;;;8.52;3.72;;;25.40;22.10;;;;;;6147612;28;80569;-66
2022/03/23 15:19:19;;;;;;;7.57;4.03;;;25.40;21.30;;;;;;6159315;28;81421;-67
2022/03/23 15:22:20;;;;;;;8.50;4.18;;;25.40;22.30;;;;;;6157914;28;83684;-67
2022/03/23 15:25:21;;;;;;;4.60;3.10;;;25.40;22.10;;;;;;6157516;28;80373;-67
2022/03/23 15:28:22;;;;;;;17.23;4.85;;;25.40;22.20;;;;;;6142129;28;80765;-70
2022/03/23 15:31:22;;;;;;;8.35;3.58;;;25.30;22.00;;;;;;6154514;28;81891;-68
2022/03/23 15:34:23;;;;;;;8.70;3.45;;;25.30;20.00;;;;;;6158476;28;81784;-68
2022/03/23 15:37:23;;;;;;;5.63;3.42;;;25.20;20.40;;;;;;6152248;28;80630;-68
2022/03/23 15:40:24;;;;;;;9.45;4.28;;;25.30;20.20;;;;;;6160140;28;80577;-65
2022/03/23 15:43:26;;;;;;;9.50;4.45;;;25.30;21.00;;;;;;6152819;28;80441;-66
2022/03/23 15:46:27;;;;;;;6.03;4.07;;;25.30;21.20;;;;;;6159248;28;80536;-69
2022/03/23 15:49:27;;;;;;;7.90;3.95;;;25.30;21.60;;;;;;6160621;28;80191;-67
2022/03/23 15:52:28;;;;;;;5.97;3.83;;;25.30;21.80;;;;;;6134410;28;81533;-70
2022/03/23 15:55:29;;;;;;;5.70;3.78;;;25.30;22.00;;;;;;6148276;28;80743;-71
2022/03/23 15:58:29;;;;;;;6.63;3.75;;;25.30;22.60;;;;;;6152155;28;80629;-69
2022/03/23 16:01:30;;;;;;;7.50;3.97;;;25.30;22.90;;;;;;6159912;28;80399;-68
2022/03/23 16:04:31;;;;;;;6.97;3.80;;;25.30;23.10;;;;;;6159967;28;80619;-72